createdAt,value
2019-02-24T05:03:45.838Z,0
2019-02-24T05:07:13.826Z,0
2019-02-24T05:10:41.845Z,0
2019-02-24T05:14:09.924Z,0
2019-02-24T05:17:39.038Z,0
2019-02-24T05:21:07.038Z,0
2019-02-24T05:24:34.977Z,0
2019-02-24T05:28:02.980Z,0
2019-02-24T05:31:31.019Z,0
2019-02-24T05:34:59.088Z,0
2019-02-24T05:38:28.090Z,1
2019-02-24T05:41:56.075Z,1
2019-02-24T05:45:24.032Z,2
2019-02-24T05:48:52.981Z,4
2019-02-24T05:52:20.886Z,8
2019-02-24T05:55:48.946Z,13
2019-02-24T05:59:16.884Z,21
2019-02-24T06:02:44.787Z,32
2019-02-24T06:06:12.811Z,46
2019-02-24T06:09:41.876Z,65
2019-02-24T06:13:09.944Z,88
2019-02-24T06:16:37.969Z,114
2019-02-24T06:20:06.950Z,144
2019-02-24T06:23:35.817Z,177
2019-02-24T06:27:03.904Z,214
2019-02-24T06:30:31.871Z,257
2019-02-24T06:33:59.889Z,295
2019-02-24T06:37:27.933Z,330
2019-02-24T06:40:56.026Z,367
2019-02-24T06:44:26.051Z,407
2019-02-24T06:47:54.062Z,459
2019-02-24T06:51:22.163Z,526
2019-02-24T06:54:50.215Z,626
2019-02-24T06:58:19.166Z,757
2019-02-24T07:01:47.192Z,919
2019-02-24T07:05:15.148Z,1022
2019-02-24T07:08:43.148Z,1069
2019-02-24T07:12:11.150Z,1095
2019-02-24T07:15:39.103Z,1054
2019-02-24T07:19:07.068Z,985
2019-02-24T07:22:34.972Z,897
2019-02-24T07:26:03.036Z,813
2019-02-24T07:29:31.022Z,800
2019-02-24T07:32:58.957Z,850
2019-02-24T07:36:28.043Z,955
2019-02-24T07:39:56.075Z,1072
2019-02-24T07:43:24.079Z,1208
2019-02-24T07:46:52.038Z,1256
2019-02-24T07:50:20.237Z,1189
2019-02-24T07:53:48.159Z,1101
2019-02-24T07:57:16.135Z,1102
2019-02-24T08:00:44.319Z,1205
2019-02-24T08:04:12.536Z,1418
2019-02-24T08:07:40.492Z,1769
2019-02-24T08:11:08.602Z,2018
2019-02-24T08:14:36.671Z,2144
2019-02-24T08:18:04.874Z,2174
2019-02-24T08:21:32.994Z,2166
2019-02-24T08:25:00.974Z,2260
2019-02-24T08:28:28.983Z,2314
2019-02-24T08:31:58.051Z,2391
2019-02-24T08:35:27.083Z,2347
2019-02-24T08:38:55.155Z,1978
2019-02-24T08:42:24.235Z,1773
2019-02-24T08:45:52.244Z,2035
2019-02-24T08:49:20.218Z,2437
2019-02-24T08:52:49.212Z,2680
2019-02-24T08:56:17.249Z,2269
2019-02-24T08:59:45.392Z,1850
2019-02-24T09:03:13.419Z,1535
2019-02-24T09:06:41.480Z,1477
2019-02-24T09:10:09.456Z,1398
2019-02-24T09:13:38.456Z,1329
2019-02-24T09:17:06.533Z,1371
2019-02-24T09:20:34.533Z,1450
2019-02-24T09:24:02.469Z,1615
2019-02-24T09:27:30.549Z,1747
2019-02-24T09:31:01.464Z,1669
2019-02-24T09:34:29.504Z,1416
2019-02-24T09:37:57.469Z,1435
2019-02-24T09:41:25.476Z,1611
2019-02-24T09:44:53.436Z,1659
2019-02-24T09:48:21.470Z,1672
2019-02-24T09:51:49.439Z,1606
2019-02-24T09:55:18.483Z,1528
2019-02-24T09:58:46.526Z,1370
2019-02-24T10:02:14.521Z,1620
2019-02-24T10:05:43.619Z,1614
2019-02-24T10:09:13.604Z,1561
2019-02-24T10:12:41.672Z,1599
2019-02-24T10:16:10.085Z,1753
2019-02-24T10:19:38.046Z,1690
2019-02-24T10:23:05.954Z,1723
2019-02-24T10:26:33.999Z,1737
2019-02-24T10:30:01.937Z,1749
2019-02-24T10:33:29.903Z,1766
2019-02-24T10:36:57.826Z,1814
2019-02-24T10:40:25.773Z,1944
2019-02-24T10:43:53.732Z,1988
2019-02-24T10:47:21.840Z,1990
2019-02-24T10:50:49.897Z,2026
2019-02-24T10:54:17.947Z,2127
2019-02-24T10:57:45.951Z,2396
2019-02-24T11:01:14.039Z,2531
2019-02-24T11:04:42.022Z,2692
2019-02-24T11:08:10.057Z,14695
2019-02-24T11:11:39.060Z,11938
2019-02-24T11:15:07.151Z,3732
2019-02-24T11:18:35.221Z,3695
2019-02-24T11:22:03.305Z,22288
2019-02-24T11:25:32.285Z,31264
2019-02-24T11:29:00.418Z,32368
2019-02-24T11:32:28.478Z,4112
2019-02-24T11:35:56.499Z,4194
2019-02-24T11:39:25.611Z,22392
2019-02-24T11:42:54.851Z,25416
2019-02-24T11:46:23.066Z,23768
2019-02-24T11:49:51.165Z,5163
2019-02-24T11:53:19.499Z,33056
2019-02-24T11:56:48.686Z,47624
2019-02-24T12:00:16.931Z,49376
2019-02-24T12:03:45.040Z,50560
2019-02-24T12:07:13.063Z,49056
2019-02-24T12:10:41.091Z,41672
2019-02-24T12:14:09.212Z,53424
2019-02-24T12:17:38.202Z,56488
2019-02-24T12:21:06.254Z,55056
2019-02-24T12:24:35.207Z,56272
2019-02-24T12:28:03.366Z,58848
2019-02-24T12:31:31.324Z,58992
2019-02-24T12:35:00.309Z,60168
2019-02-24T12:38:28.305Z,60552
2019-02-24T12:41:56.300Z,61904
2019-02-24T12:45:24.484Z,62312
2019-02-24T12:48:52.463Z,64600
2019-02-24T12:52:21.524Z,65400
2019-02-24T12:55:49.520Z,64936
2019-02-24T12:59:17.810Z,65535
2019-02-24T13:02:46.912Z,65535
2019-02-24T13:06:16.127Z,65535
2019-02-24T13:09:44.196Z,63344
2019-02-24T13:13:14.022Z,51792
2019-02-24T13:16:43.129Z,51704
2019-02-24T13:20:12.222Z,57264
2019-02-24T13:23:41.181Z,61112
2019-02-24T13:27:09.304Z,24456
2019-02-24T13:30:38.340Z,4212
2019-02-24T13:34:06.321Z,3554
2019-02-24T13:37:34.310Z,3152
2019-02-24T13:41:02.482Z,2983
2019-02-24T13:44:30.543Z,3104
2019-02-24T13:47:58.549Z,3263
2019-02-24T13:51:26.637Z,3261
2019-02-24T13:54:54.758Z,3122
2019-02-24T13:58:22.717Z,3011
2019-02-24T14:01:50.863Z,2863
2019-02-24T14:05:18.908Z,2780
2019-02-24T14:08:47.073Z,2667
2019-02-24T14:12:16.094Z,2550
2019-02-24T14:15:44.091Z,2579
2019-02-24T14:19:12.085Z,2441
2019-02-24T14:22:40.101Z,2661
2019-02-24T14:26:09.484Z,2619
2019-02-24T14:29:37.503Z,2567
2019-02-24T14:33:05.512Z,2486
2019-02-24T14:36:33.570Z,2367
2019-02-24T14:40:01.937Z,2361
2019-02-24T14:43:30.894Z,2229
2019-02-24T14:46:59.904Z,2097
2019-02-24T14:50:28.013Z,2081
2019-02-24T14:53:56.123Z,2078
2019-02-24T14:57:24.118Z,1973
2019-02-24T15:00:52.138Z,1872
2019-02-24T15:04:20.154Z,1857
2019-02-24T15:07:48.879Z,1708
2019-02-24T15:11:18.252Z,1683
2019-02-24T15:14:46.204Z,1475
2019-02-24T15:18:14.410Z,1294
2019-02-24T15:21:42.400Z,1275
2019-02-24T15:25:10.407Z,1212
2019-02-24T15:28:38.586Z,1163
2019-02-24T15:32:06.753Z,1105
2019-02-24T15:35:34.810Z,1059
2019-02-24T15:39:02.814Z,931
2019-02-24T15:42:30.790Z,983
2019-02-24T15:45:58.917Z,923
2019-02-24T15:49:26.906Z,873
2019-02-24T15:52:54.813Z,774
2019-02-24T15:56:22.991Z,730
2019-02-24T15:59:50.973Z,609
2019-02-24T16:03:19.867Z,537
2019-02-24T16:06:47.834Z,477
2019-02-24T16:10:15.801Z,440
2019-02-24T16:13:44.835Z,379
2019-02-24T16:17:12.822Z,314
2019-02-24T16:20:40.910Z,252
2019-02-24T16:24:09.893Z,204
2019-02-24T16:27:37.944Z,154
2019-02-24T16:31:06.042Z,112
2019-02-24T16:34:34.064Z,80
2019-02-24T16:38:02.087Z,55
2019-02-24T16:41:30.210Z,38
2019-02-24T16:44:58.238Z,25
2019-02-24T16:48:27.042Z,15
2019-02-24T16:51:55.170Z,10
2019-02-24T16:55:23.137Z,5
2019-02-24T16:58:51.115Z,3
2019-02-24T17:02:23.005Z,2
2019-02-24T17:05:50.943Z,2
2019-02-24T17:09:18.858Z,1
2019-02-24T17:12:46.832Z,0
2019-02-24T17:16:14.832Z,0
2019-02-24T17:19:43.751Z,0
2019-02-24T17:23:11.688Z,0
2019-02-24T17:26:39.634Z,0
2019-02-24T17:30:07.566Z,0
2019-02-24T17:33:35.574Z,0
2019-02-24T17:37:03.574Z,0
2019-02-24T17:40:31.530Z,0
2019-02-24T17:43:59.466Z,0
2019-02-24T17:47:27.486Z,0
2019-02-24T17:50:55.435Z,0
2019-02-24T17:54:24.352Z,0
2019-02-24T17:57:52.661Z,0
2019-02-24T18:01:20.703Z,0
2019-02-24T18:04:48.750Z,0
2019-02-24T18:08:16.837Z,0
2019-02-24T18:11:46.934Z,0
2019-02-24T18:15:15.043Z,0
2019-02-24T18:18:43.042Z,0
2019-02-24T18:22:12.314Z,0
2019-02-24T18:25:40.640Z,0
2019-02-24T18:29:09.628Z,0
2019-02-24T18:32:37.647Z,0
2019-02-24T18:36:07.655Z,0
2019-02-24T18:39:35.605Z,0
2019-02-24T18:43:03.597Z,0
2019-02-24T18:46:38.564Z,0
2019-02-24T18:50:11.370Z,0
2019-02-24T18:53:39.305Z,0
2019-02-24T18:57:07.260Z,0
2019-02-24T19:00:36.233Z,0
2019-02-24T19:04:04.242Z,0
2019-02-24T19:07:32.233Z,0
2019-02-24T19:11:00.194Z,0
2019-02-24T19:14:28.156Z,0
2019-02-24T19:17:56.157Z,0
2019-02-24T19:21:24.230Z,0
2019-02-24T19:24:52.167Z,0
2019-02-24T19:34:30.243Z,0
2019-02-24T19:37:58.309Z,0
2019-02-24T19:41:26.291Z,0
2019-02-24T19:44:56.277Z,0
2019-02-24T19:48:24.313Z,0
2019-02-24T19:51:53.210Z,0
2019-02-24T19:55:21.135Z,0
2019-02-24T19:58:51.209Z,0
2019-02-24T20:02:19.072Z,0
2019-02-24T20:05:47.033Z,0
2019-02-24T20:09:14.992Z,0
2019-02-24T20:12:42.929Z,0
2019-02-24T20:16:11.534Z,0
2019-02-24T20:19:39.540Z,0
2019-02-24T20:23:07.538Z,0
2019-02-24T20:26:35.496Z,0
2019-02-24T20:30:03.520Z,0
2019-02-24T20:33:31.550Z,0
2019-02-24T20:36:59.532Z,0
2019-02-24T20:40:28.328Z,0
2019-02-24T20:43:57.304Z,0
2019-02-24T20:47:25.355Z,0
2019-02-24T20:50:54.224Z,0
2019-02-24T20:54:23.171Z,0
2019-02-24T20:57:51.158Z,0
2019-02-24T21:01:19.096Z,0
2019-02-24T21:04:47.997Z,0
2019-02-24T21:08:15.922Z,0
2019-02-24T21:11:43.844Z,0
2019-02-24T21:15:12.862Z,0
2019-02-24T21:18:46.188Z,0
2019-02-24T21:22:14.206Z,0
2019-02-24T21:25:42.276Z,0
2019-02-24T21:29:10.257Z,0
2019-02-24T21:32:38.240Z,0
2019-02-24T21:36:06.221Z,0
2019-02-24T21:39:34.188Z,0
2019-02-24T21:43:02.185Z,0
2019-02-24T21:46:30.087Z,0
2019-02-24T21:49:58.089Z,0
2019-02-24T21:53:26.064Z,0
2019-02-24T21:56:54.052Z,0
2019-02-24T22:00:21.964Z,0
2019-02-24T22:03:49.999Z,0
2019-02-24T22:07:17.994Z,0
2019-02-24T22:10:45.906Z,0
2019-02-24T22:14:13.912Z,0
2019-02-24T22:17:41.793Z,0
2019-02-24T22:21:09.801Z,0
2019-02-24T22:24:37.761Z,0
2019-02-24T22:28:05.702Z,0
2019-02-24T22:31:33.635Z,0
2019-02-24T22:35:01.647Z,0
2019-02-24T22:38:29.621Z,0
2019-02-24T22:41:57.586Z,0
2019-02-24T22:45:25.492Z,0
2019-02-24T22:48:53.518Z,0
2019-02-24T22:52:21.566Z,0
2019-02-24T22:55:49.503Z,0
2019-02-24T22:59:17.467Z,0
